Time;durP1;ratioP1;P1;durP2;ratioP2;P2;SDS_P1;SDS_P2;PMS_P1;PMS_P2;Temp;Humidity;BMP_temperature;BMP_pressure;BME280_temperature;BME280_humidity;BME280_pressure;Samples;Min_cycle;Max_cycle;Signal;HPM_P1;HPM_P2
2022/08/26 00:04:27;;;;;;;3.45;1.08;;;;;;;25.30;46.18;101497.44;16146201;19;129507;-40
2022/08/26 00:09:50;;;;;;;3.35;1.20;;;;;;;25.30;46.42;101505.03;16143653;19;130547;-41
2022/08/26 00:15:18;;;;;;;7.18;1.38;;;;;;;25.29;46.19;101508.94;16142422;19;129198;-41
2022/08/26 00:20:40;;;;;;;4.55;1.20;;;;;;;25.28;46.33;101512.88;16136131;19;130165;-40
2022/08/26 00:26:04;;;;;;;3.28;1.13;;;;;;;25.28;46.05;101507.25;16139672;19;129020;-41
2022/08/26 00:31:28;;;;;;;10.95;1.60;;;;;;;25.26;46.33;101512.28;16138866;19;131468;-41
2022/08/26 00:36:51;;;;;;;2.28;0.90;;;;;;;25.25;46.35;101508.66;16140373;19;129957;-40
2022/08/26 00:42:13;;;;;;;4.25;0.98;;;;;;;25.25;46.12;101507.81;16134716;19;129297;-41
2022/08/26 00:47:42;;;;;;;4.63;1.08;;;;;;;25.26;46.26;101515.09;16135560;19;129810;-42
2022/08/26 00:53:20;;;;;;;4.28;1.10;;;;;;;25.23;45.97;101494.09;16136585;19;132837;-40
2022/08/26 00:58:49;;;;;;;2.95;0.98;;;;;;;25.22;46.10;101502.78;16136269;19;129422;-42
2022/08/26 01:04:14;;;;;;;5.20;1.10;;;;;;;25.22;46.05;101508.38;16139045;19;129367;-43
2022/08/26 01:09:37;;;;;;;3.85;0.98;;;;;;;25.19;46.18;101496.63;16139454;19;128888;-42
2022/08/26 01:15:01;;;;;;;3.27;1.00;;;;;;;25.19;46.04;101493.81;16131949;19;128975;-41
2022/08/26 01:20:50;;;;;;;2.88;0.90;;;;;;;25.19;46.11;101498.56;16140252;19;130400;-41
2022/08/26 01:26:17;;;;;;;3.13;0.85;;;;;;;25.17;46.00;101506.44;16137807;19;128950;-41
2022/08/26 01:31:54;;;;;;;3.50;1.00;;;;;;;25.19;46.18;101505.03;16136148;19;129563;-41
2022/08/26 01:37:19;;;;;;;1.30;0.65;;;;;;;25.16;46.18;101505.56;16134037;19;130823;-41
2022/08/26 01:42:42;;;;;;;3.47;0.70;;;;;;;25.16;45.90;101516.75;16136242;19;129319;-40
2022/08/26 01:48:10;;;;;;;1.67;0.70;;;;;;;25.16;45.86;101515.94;16131828;19;129557;-44
2022/08/26 01:53:37;;;;;;;3.45;0.98;;;;;;;25.14;45.85;101518.16;16132208;19;130833;-41
2022/08/26 01:59:06;;;;;;;3.58;1.10;;;;;;;25.12;45.90;101524.03;16133658;19;129311;-41
2022/08/26 02:04:36;;;;;;;7.18;0.90;;;;;;;25.13;45.77;101511.72;16134056;19;129701;-43
2022/08/26 02:09:58;;;;;;;1.98;0.57;;;;;;;25.13;45.92;101524.88;16134070;19;129165;-41
2022/08/26 02:15:19;;;;;;;1.25;0.73;;;;;;;25.11;46.10;101522.34;16128273;19;129521;-42
2022/08/26 02:20:42;;;;;;;3.15;0.75;;;;;;;25.11;45.71;101527.13;16132280;19;129215;-41
2022/08/26 02:26:16;;;;;;;3.00;0.80;;;;;;;25.12;45.97;101529.63;16133607;19;132165;-42
2022/08/26 02:31:39;;;;;;;3.03;0.57;;;;;;;25.09;45.61;101521.81;16132664;19;131522;-40
2022/08/26 02:37:06;;;;;;;3.30;0.60;;;;;;;25.10;45.78;101534.69;16131239;19;129567;-40
2022/08/26 02:42:28;;;;;;;3.60;0.60;;;;;;;25.10;45.77;101534.69;16131806;19;131423;-42
2022/08/26 02:47:50;;;;;;;0.75;0.50;;;;;;;25.09;45.90;101530.19;16128374;19;129351;-42
2022/08/26 02:53:13;;;;;;;4.50;0.82;;;;;;;25.10;45.99;101533.84;16142741;19;129734;-40
2022/08/26 02:58:35;;;;;;;5.95;0.90;;;;;;;25.10;45.72;101529.09;16144680;19;129015;-41
2022/08/26 03:03:59;;;;;;;3.15;0.60;;;;;;;25.09;45.59;101527.41;16144695;19;130666;-40
2022/08/26 03:09:21;;;;;;;1.98;0.68;;;;;;;25.08;45.54;101525.72;16144328;19;129753;-42
2022/08/26 03:14:43;;;;;;;2.47;0.60;;;;;;;25.08;45.65;101536.91;16139939;19;129266;-41
2022/08/26 03:20:09;;;;;;;3.00;0.68;;;;;;;25.08;45.72;101524.84;16145093;19;129963;-43
2022/08/26 03:25:33;;;;;;;2.67;0.57;;;;;;;25.07;45.82;101535.22;16144404;19;129649;-41
2022/08/26 03:30:56;;;;;;;5.70;0.80;;;;;;;25.06;45.72;101527.94;16141141;19;129395;-40
2022/08/26 03:36:18;;;;;;;3.17;0.90;;;;;;;25.06;45.52;101539.16;16144095;19;128999;-41
2022/08/26 03:41:42;;;;;;;2.60;0.52;;;;;;;25.05;45.67;101520.66;16137687;19;129544;-41
2022/08/26 03:47:06;;;;;;;4.85;0.80;;;;;;;25.04;45.51;101530.19;16139606;19;129278;-41
2022/08/26 03:52:29;;;;;;;5.68;0.70;;;;;;;25.05;45.72;101526.25;16142967;19;129392;-42
2022/08/26 03:57:52;;;;;;;1.65;0.50;;;;;;;25.04;45.52;101521.78;16144092;19;129654;-41
2022/08/26 04:03:56;;;;;;;3.03;0.60;;;;;;;25.03;45.62;101529.34;16143200;19;129518;-40
2022/08/26 04:08:57;;;;;;;3.28;0.60;;;;;;;25.03;45.53;101523.75;16143632;19;130202;-41
2022/08/26 04:14:21;;;;;;;3.00;0.60;;;;;;;25.01;45.43;101519.53;16137946;19;129355;-41
2022/08/26 04:19:43;;;;;;;3.53;0.67;;;;;;;25.00;45.32;101518.69;16141343;19;129329;-41
2022/08/26 04:25:06;;;;;;;2.88;0.90;;;;;;;25.01;45.41;101513.94;16141667;19;130713;-41
2022/08/26 04:30:28;;;;;;;5.25;0.85;;;;;;;24.99;45.48;101521.75;16139420;19;129734;-40
2022/08/26 04:35:57;;;;;;;2.35;0.63;;;;;;;24.98;45.49;101522.91;16134521;19;129430;-40
2022/08/26 04:41:19;;;;;;;2.08;0.70;;;;;;;24.98;45.23;101525.69;16135508;19;128951;-40
2022/08/26 04:46:41;;;;;;;4.55;0.60;;;;;;;24.97;45.24;101535.22;16135218;19;130929;-43
2022/08/26 04:52:04;;;;;;;3.38;0.80;;;;;;;24.96;45.11;101527.94;16136703;19;130065;-43
2022/08/26 04:57:26;;;;;;;1.90;0.60;;;;;;;24.96;45.07;101536.31;16138891;19;130506;-41
2022/08/26 05:02:48;;;;;;;2.05;0.60;;;;;;;24.95;45.07;101537.44;16138531;19;129364;-41
2022/08/26 05:08:13;;;;;;;3.55;0.70;;;;;;;24.96;45.27;101558.72;16139864;19;129328;-42
2022/08/26 05:13:37;;;;;;;2.72;0.60;;;;;;;24.95;45.33;101551.44;16134126;19;130969;-41
2022/08/26 05:19:00;;;;;;;4.47;0.65;;;;;;;24.95;45.38;101557.03;16137377;19;129277;-41
2022/08/26 05:24:22;;;;;;;3.10;0.50;;;;;;;24.95;45.37;101549.47;16137379;19;129351;-41
2022/08/26 05:29:44;;;;;;;2.33;0.50;;;;;;;24.93;45.38;101554.47;16137326;19;129339;-41
2022/08/26 05:35:06;;;;;;;3.20;0.82;;;;;;;24.94;45.25;101566.53;16133864;19;129886;-40
2022/08/26 05:40:33;;;;;;;1.25;0.60;;;;;;;24.95;45.44;101559.81;16135175;19;129629;-40
2022/08/26 05:45:56;;;;;;;2.17;0.75;;;;;;;24.94;45.57;101569.34;16135630;19;129886;-41
2022/08/26 05:51:18;;;;;;;4.15;0.60;;;;;;;24.94;45.38;101569.34;16136341;19;129602;-40
2022/08/26 05:56:46;;;;;;;4.20;0.63;;;;;;;24.95;45.59;101576.63;16134368;19;131774;-43
2022/08/26 06:02:09;;;;;;;6.63;0.88;;;;;;;24.96;45.36;101573.53;16135800;19;130548;-42
2022/08/26 06:13:26;;;;;;;10.23;1.20;;;;;;;24.97;45.05;101585.59;16131521;19;131018;-42
2022/08/26 06:18:53;;;;;;;8.95;1.08;;;;;;;24.98;45.18;101592.88;16137077;19;130431;-46
2022/08/26 06:29:57;;;;;;;5.38;1.08;;;;;;;24.99;45.51;101589.78;16149671;19;129786;-45
2022/08/26 06:35:18;;;;;;;7.28;1.33;;;;;;;25.00;45.83;101591.47;16143357;19;129354;-40
2022/08/26 06:40:44;;;;;;;10.95;1.48;;;;;;;25.02;46.19;101588.41;16146679;19;129170;-42
2022/08/26 06:46:08;;;;;;;;;;;;;;;24.98;46.09;101595.69;16144428;19;130139;-42
2022/08/26 06:51:35;;;;;;;4.43;1.02;;;;;;;24.92;45.55;101607.94;16142978;19;131704;-41
2022/08/26 06:56:57;;;;;;;4.40;1.10;;;;;;;24.86;45.84;101601.47;16149280;19;128953;-41
2022/08/26 07:02:19;;;;;;;6.93;0.95;;;;;;;24.84;45.45;101598.09;16147383;19;130194;-42
2022/08/26 07:07:41;;;;;;;5.05;1.20;;;;;;;24.82;45.38;101601.16;16143902;19;129004;-43
2022/08/26 07:13:03;;;;;;;7.50;1.35;;;;;;;24.82;45.11;101606.75;16140531;19;132711;-42
2022/08/26 07:18:28;;;;;;;4.03;0.80;;;;;;;24.81;45.31;101607.00;16145099;19;129650;-41
2022/08/26 07:23:50;;;;;;;5.63;0.93;;;;;;;24.81;44.88;101610.69;16145602;19;130778;-42
2022/08/26 07:29:13;;;;;;;4.55;0.80;;;;;;;24.83;44.50;101611.25;16142046;19;129536;-47
2022/08/26 07:34:38;;;;;;;5.00;1.10;;;;;;;24.88;44.58;101610.44;16138740;19;130319;-42
2022/08/26 07:40:03;;;;;;;5.88;1.15;;;;;;;24.90;44.65;101618.56;16142777;19;129565;-43
2022/08/26 07:45:25;;;;;;;8.15;1.40;;;;;;;24.87;44.84;101623.56;16143574;19;129849;-45
2022/08/26 07:50:47;;;;;;;3.72;0.90;;;;;;;24.87;44.90;101629.16;16143974;19;130299;-45
2022/08/26 07:56:10;;;;;;;4.63;1.13;;;;;;;24.85;44.51;101617.41;16140345;19;130480;-42
2022/08/26 08:01:33;;;;;;;5.93;0.80;;;;;;;24.84;44.66;101617.69;16142634;19;129511;-42
2022/08/26 08:06:59;;;;;;;4.07;0.80;;;;;;;24.84;44.65;101615.72;16143213;19;129178;-47
2022/08/26 08:12:21;;;;;;;4.72;1.05;;;;;;;24.85;44.51;101622.16;16141427;19;129362;-47
2022/08/26 08:17:43;;;;;;;5.50;0.93;;;;;;;24.82;44.52;101628.28;16141082;19;129380;-44
2022/08/26 08:23:05;;;;;;;4.63;0.85;;;;;;;24.79;44.62;101624.09;16139167;19;129749;-43
2022/08/26 08:28:27;;;;;;;6.38;1.42;;;;;;;24.78;44.72;101630.78;16141828;19;130620;-44
2022/08/26 08:33:49;;;;;;;4.38;1.02;;;;;;;24.75;44.56;101628.53;16136586;19;129264;-41
2022/08/26 08:39:12;;;;;;;6.28;1.20;;;;;;;24.72;44.78;101629.09;16137738;19;129106;-41
2022/08/26 08:44:39;;;;;;;8.55;0.95;;;;;;;24.70;44.54;101634.13;16137654;19;129407;-42
2022/08/26 08:50:11;;;;;;;5.93;1.00;;;;;;;24.70;44.69;101637.75;16137206;19;129515;-41
2022/08/26 08:55:59;;;;;;;8.00;1.30;;;;;;;24.68;44.59;101644.75;16135600;19;129382;-41
2022/08/26 09:01:35;;;;;;;5.80;0.90;;;;;;;24.69;45.01;101641.66;16137644;19;128905;-45
2022/08/26 09:06:59;;;;;;;4.75;1.05;;;;;;;24.68;44.72;101636.34;16137771;19;129323;-43
2022/08/26 09:12:26;;;;;;;4.65;1.45;;;;;;;24.70;44.91;101642.50;16140161;19;129896;-44
2022/08/26 09:18:13;;;;;;;6.45;1.27;;;;;;;24.72;44.93;101651.47;16137795;19;129778;-45
2022/08/26 09:23:39;;;;;;;4.07;0.85;;;;;;;24.72;45.00;101641.13;16135206;19;130450;-43
2022/08/26 09:29:39;;;;;;;3.85;1.10;;;;;;;24.72;44.62;101645.88;16137045;19;129679;-44
2022/08/26 09:35:06;;;;;;;4.22;1.10;;;;;;;24.73;44.88;101647.56;16133773;19;129629;-42
2022/08/26 09:40:33;;;;;;;7.38;1.02;;;;;;;24.77;44.87;101651.50;16136107;19;129202;-44
2022/08/26 09:46:27;;;;;;;6.20;0.98;;;;;;;24.81;44.70;101655.44;16134400;19;129828;-41
2022/08/26 09:52:22;;;;;;;5.65;0.90;;;;;;;24.83;44.49;101664.41;16136704;19;129140;-42
2022/08/26 09:57:54;;;;;;;5.83;1.13;;;;;;;24.85;44.49;101659.41;16134148;19;129124;-40
2022/08/26 10:03:31;;;;;;;5.70;1.00;;;;;;;24.88;44.22;101661.66;16133456;19;129720;-39
2022/08/26 10:08:57;;;;;;;10.45;1.00;;;;;;;24.88;43.97;101666.41;16135995;19;129507;-42
2022/08/26 10:14:29;;;;;;;2.25;0.60;;;;;;;24.87;43.90;101665.53;16127435;19;129474;-40
2022/08/26 10:20:13;;;;;;;7.43;0.95;;;;;;;24.87;44.02;101659.94;16130823;19;130243;-41
2022/08/26 10:25:59;;;;;;;2.75;0.80;;;;;;;24.87;44.01;101659.13;16132331;19;130055;-39
2022/08/26 10:31:43;;;;;;;5.68;0.80;;;;;;;24.88;43.61;101656.06;16132647;19;128929;-38
2022/08/26 10:37:12;;;;;;;7.70;1.00;;;;;;;24.95;43.79;101649.41;16127894;19;130934;-40
2022/08/26 10:42:41;;;;;;;9.63;1.27;;;;;;;24.99;43.64;101644.91;16128401;19;129509;-41
2022/08/26 10:48:16;;;;;;;19.40;1.40;;;;;;;25.05;43.61;101645.81;16127917;19;129377;-43
2022/08/26 10:53:41;;;;;;;92.68;5.22;;;;;;;25.05;43.46;101655.03;16130277;19;129569;-42
2022/08/26 10:59:16;;;;;;;7.25;1.20;;;;;;;25.05;43.45;101649.44;16131533;19;130037;-46
2022/08/26 11:04:57;;;;;;;15.00;1.67;;;;;;;25.03;43.28;101644.13;16131713;19;129706;-43
2022/08/26 11:10:21;;;;;;;9.55;1.00;;;;;;;25.03;43.67;101652.53;16135517;19;129039;-42
2022/08/26 11:15:53;;;;;;;8.73;0.77;;;;;;;25.04;43.52;101653.34;16141727;19;129663;-43
2022/08/26 11:22:09;;;;;;;7.30;1.17;;;;;;;25.03;43.15;101652.53;16147088;19;129804;-43
2022/08/26 11:27:35;;;;;;;4.63;0.70;;;;;;;25.01;43.29;101651.09;16136103;19;131894;-43
2022/08/26 11:32:58;;;;;;;4.95;0.70;;;;;;;25.00;43.30;101652.19;16133714;19;130160;-46
2022/08/26 11:38:31;;;;;;;3.08;0.60;;;;;;;25.03;43.01;101657.25;16131106;19;129109;-40
2022/08/26 11:43:53;;;;;;;3.83;0.65;;;;;;;25.00;42.99;101641.88;16133608;19;129836;-42
2022/08/26 11:49:16;;;;;;;2.35;0.50;;;;;;;25.02;43.34;101649.97;16128428;19;130471;-41
2022/08/26 11:54:38;;;;;;;4.63;0.65;;;;;;;25.03;43.18;101640.47;16130492;19;129675;-43
2022/08/26 12:00:01;;;;;;;5.57;0.75;;;;;;;25.01;42.85;101651.94;16137544;19;129791;-46
2022/08/26 12:05:29;;;;;;;4.80;0.70;;;;;;;24.99;42.73;101637.38;16142578;19;132209;-44
2022/08/26 12:11:07;;;;;;;4.75;0.55;;;;;;;24.99;42.74;101634.56;16144924;19;129830;-42
2022/08/26 12:16:39;;;;;;;4.35;0.70;;;;;;;25.01;43.03;101632.34;16138626;19;130324;-40
2022/08/26 12:22:21;;;;;;;4.95;0.45;;;;;;;25.06;42.48;101630.66;16141697;19;128841;-40
2022/08/26 12:27:44;;;;;;;4.30;0.40;;;;;;;25.08;42.83;101632.09;16141007;19;129466;-42
2022/08/26 12:33:14;;;;;;;5.22;1.05;;;;;;;25.12;42.94;101632.38;16141479;19;129574;-41
2022/08/26 12:38:43;;;;;;;2.20;0.35;;;;;;;25.13;42.82;101637.69;16138324;19;129792;-43
2022/08/26 12:44:05;;;;;;;4.22;0.73;;;;;;;25.15;42.71;101635.47;16138764;19;128867;-42
2022/08/26 12:49:27;;;;;;;3.75;0.73;;;;;;;25.15;42.65;101643.88;16143549;19;131919;-39
2022/08/26 12:54:57;;;;;;;2.13;0.50;;;;;;;25.16;42.56;101639.97;16138928;19;129392;-42
2022/08/26 13:00:38;;;;;;;2.53;0.40;;;;;;;25.15;42.29;101638.28;16139550;19;129416;-42
2022/08/26 13:06:14;;;;;;;6.50;0.73;;;;;;;25.13;42.24;101640.50;16139797;19;130149;-42
2022/08/26 13:11:39;;;;;;;5.05;0.50;;;;;;;25.12;42.38;101644.41;16139300;19;129444;-42
2022/08/26 13:17:01;;;;;;;3.40;0.50;;;;;;;25.12;42.18;101644.41;16135533;19;128860;-42
2022/08/26 13:22:25;;;;;;;4.00;0.60;;;;;;;25.11;42.33;101637.13;16136639;19;129489;-42
2022/08/26 13:27:47;;;;;;;3.30;0.82;;;;;;;25.10;42.30;101635.47;16136345;19;130458;-42
2022/08/26 13:33:10;;;;;;;3.38;0.60;;;;;;;25.09;42.06;101641.31;16129473;19;130033;-43
2022/08/26 13:38:35;;;;;;;4.40;0.68;;;;;;;25.09;42.19;101639.38;16133162;19;129101;-42
2022/08/26 13:43:57;;;;;;;5.65;0.60;;;;;;;25.08;42.22;101636.84;16135582;19;129350;-41
2022/08/26 13:49:21;;;;;;;5.43;0.60;;;;;;;25.05;41.96;101637.41;16131234;19;131758;-40
2022/08/26 13:54:42;;;;;;;6.55;1.00;;;;;;;25.04;42.18;101619.75;16137077;19;129679;-43
2022/08/26 14:00:05;;;;;;;4.15;0.60;;;;;;;25.06;41.84;101623.13;16135946;19;130240;-39
2022/08/26 14:05:32;;;;;;;8.70;1.08;;;;;;;25.08;42.00;101623.69;16134428;19;130120;-41
2022/08/26 14:10:54;;;;;;;9.95;1.20;;;;;;;25.11;41.69;101625.09;16136636;19;129021;-41
2022/08/26 14:16:25;;;;;;;8.45;1.17;;;;;;;25.14;41.87;101616.16;16131220;19;130110;-41
2022/08/26 14:21:47;;;;;;;7.68;0.73;;;;;;;25.13;41.56;101617.28;16135181;19;129548;-39
2022/08/26 14:27:10;;;;;;;7.65;1.13;;;;;;;25.14;41.62;101622.59;16132242;19;129601;-41
2022/08/26 14:32:33;;;;;;;5.45;1.10;;;;;;;25.16;41.52;101620.38;16130909;19;129519;-41
2022/08/26 14:37:55;;;;;;;5.93;0.80;;;;;;;25.18;41.53;101614.47;16131583;19;129531;-42
2022/08/26 14:43:17;;;;;;;5.18;1.05;;;;;;;25.18;41.46;101620.06;16133119;19;129533;-42
2022/08/26 14:48:39;;;;;;;4.55;1.17;;;;;;;25.18;41.60;101623.75;16143526;19;129241;-41
2022/08/26 14:54:10;;;;;;;5.68;1.20;;;;;;;25.19;41.59;101618.97;16148728;19;129563;-42
2022/08/26 14:59:38;;;;;;;3.83;0.77;;;;;;;25.18;41.55;101609.72;16146902;19;129992;-41
2022/08/26 15:05:01;;;;;;;6.03;0.95;;;;;;;25.17;41.32;101602.44;16145802;19;128951;-42
2022/08/26 15:10:23;;;;;;;5.22;1.00;;;;;;;25.15;41.45;101610.28;16145794;19;130286;-42
2022/08/26 15:15:45;;;;;;;9.77;1.42;;;;;;;25.17;41.27;101613.66;16142978;19;129569;-40
2022/08/26 15:21:07;;;;;;;6.32;1.10;;;;;;;25.16;41.41;101611.97;16146314;19;129631;-40
2022/08/26 15:26:30;;;;;;;6.53;0.85;;;;;;;25.15;41.30;101615.88;16148058;19;132335;-40
2022/08/26 15:31:52;;;;;;;9.70;1.15;;;;;;;25.14;41.29;101619.78;16141931;19;130500;-40
2022/08/26 15:37:18;;;;;;;4.32;1.17;;;;;;;25.13;41.16;101611.69;16140475;19;128995;-40
2022/08/26 15:42:39;;;;;;;4.97;1.02;;;;;;;25.12;41.31;101621.19;16143915;19;128936;-40
2022/08/26 15:48:02;;;;;;;4.30;1.35;;;;;;;25.10;41.13;101610.28;16138469;19;129384;-40
2022/08/26 15:53:25;;;;;;;5.35;1.42;;;;;;;25.09;40.98;101593.72;16143126;19;129470;-40
2022/08/26 15:58:47;;;;;;;6.47;1.27;;;;;;;25.08;41.04;101597.66;16135344;19;129277;-41
2022/08/26 16:04:10;;;;;;;8.25;1.33;;;;;;;25.07;41.06;101594.03;16142760;19;130213;-41
2022/08/26 16:09:32;;;;;;;7.03;1.15;;;;;;;25.06;41.00;101595.13;16141648;19;129247;-41
2022/08/26 16:14:53;;;;;;;5.40;0.90;;;;;;;25.04;40.96;101600.16;16140761;19;130652;-41
2022/08/26 16:20:15;;;;;;;3.85;0.82;;;;;;;25.03;40.92;101598.47;16142777;19;128959;-41
2022/08/26 16:25:37;;;;;;;3.20;0.80;;;;;;;25.03;40.78;101590.94;16141307;19;129672;-41
2022/08/26 16:30:59;;;;;;;3.97;1.10;;;;;;;25.03;41.00;101595.69;16139988;19;129361;-43
2022/08/26 16:36:21;;;;;;;7.93;0.90;;;;;;;25.04;40.96;101591.75;16139274;19;128843;-42
2022/08/26 16:41:43;;;;;;;6.80;1.00;;;;;;;25.06;41.06;101592.34;16151466;19;129054;-46
2022/08/26 16:47:05;;;;;;;5.32;0.90;;;;;;;25.06;40.95;101591.47;16153177;19;129671;-48
2022/08/26 16:52:27;;;;;;;5.25;1.00;;;;;;;25.06;41.15;101588.69;16160990;19;128920;-48
2022/08/26 16:57:51;;;;;;;10.38;1.10;;;;;;;25.03;41.33;101579.75;16155707;19;129367;-51
2022/08/26 17:03:14;;;;;;;6.82;1.00;;;;;;;25.05;41.27;101571.06;16160360;19;129560;-49
2022/08/26 17:08:37;;;;;;;3.80;1.17;;;;;;;25.07;41.25;101573.56;16159596;19;129471;-51
2022/08/26 17:13:59;;;;;;;9.30;1.30;;;;;;;25.05;41.07;101565.44;16153909;19;129297;-48
2022/08/26 17:19:21;;;;;;;13.10;1.35;;;;;;;25.05;40.98;101564.63;16153689;19;129966;-51
2022/08/26 17:24:43;;;;;;;16.35;1.60;;;;;;;25.05;41.35;101568.25;16143234;19;129839;-42
2022/08/26 17:30:06;;;;;;;7.95;1.15;;;;;;;25.04;41.45;101577.75;16135522;19;129220;-46
2022/08/26 17:35:27;;;;;;;16.92;1.35;;;;;;;25.02;41.28;101588.41;16138274;19;129396;-46
2022/08/26 17:40:49;;;;;;;10.55;1.35;;;;;;;25.01;40.95;101586.69;16135869;19;129235;-44
2022/08/26 17:46:11;;;;;;;12.38;0.90;;;;;;;25.00;41.07;101582.22;16133966;19;129306;-42
2022/08/26 17:51:34;;;;;;;16.88;1.17;;;;;;;24.98;41.25;101596.50;16136336;19;130049;-41
2022/08/26 17:56:55;;;;;;;12.90;1.42;;;;;;;24.98;40.91;101598.47;16132353;19;130655;-40
2022/08/26 18:02:18;;;;;;;5.18;1.10;;;;;;;24.96;41.10;101601.53;16133585;19;129766;-42
2022/08/26 18:07:40;;;;;;;11.80;1.30;;;;;;;24.95;40.81;101602.63;16135118;19;129339;-44
2022/08/26 18:13:04;;;;;;;6.95;0.95;;;;;;;24.95;41.01;101605.44;16130743;19;129607;-42
2022/08/26 18:18:26;;;;;;;5.38;1.30;;;;;;;24.94;41.18;101611.31;16129660;19;130626;-40
2022/08/26 18:23:49;;;;;;;7.15;1.10;;;;;;;24.92;40.99;101599.56;16149538;19;129603;-40
2022/08/26 18:29:11;;;;;;;4.57;1.23;;;;;;;24.90;40.87;101607.38;16141970;19;130019;-41
2022/08/26 18:34:34;;;;;;;3.42;1.10;;;;;;;24.86;40.64;101613.47;16144356;19;129422;-43
2022/08/26 18:39:57;;;;;;;5.35;1.00;;;;;;;24.87;40.78;101605.94;16148123;19;130071;-43
2022/08/26 18:45:19;;;;;;;9.15;0.90;;;;;;;24.90;40.72;101621.38;16146477;19;129511;-44
2022/08/26 18:50:41;;;;;;;4.10;0.80;;;;;;;24.87;40.60;101617.13;16146617;19;130375;-45
2022/08/26 18:56:07;;;;;;;6.28;1.10;;;;;;;24.86;40.51;101613.47;16145489;19;129505;-45
2022/08/26 19:01:30;;;;;;;6.95;1.27;;;;;;;24.86;40.59;101607.06;16146375;19;129481;-41
2022/08/26 19:06:54;;;;;;;6.78;1.13;;;;;;;24.85;40.91;101614.63;16145494;19;129496;-42
2022/08/26 19:12:16;;;;;;;4.63;1.50;;;;;;;24.87;40.62;101619.94;16145262;19;129207;-47
2022/08/26 19:17:38;;;;;;;3.67;0.98;;;;;;;24.87;40.47;101628.31;16141545;19;129837;-45
2022/08/26 19:23:00;;;;;;;6.97;0.88;;;;;;;24.90;40.72;101627.81;16143987;19;130048;-46
2022/08/26 19:28:31;;;;;;;23.10;1.60;;;;;;;24.87;40.36;101628.31;16145687;19;129835;-42
2022/08/26 19:33:53;;;;;;;9.65;1.20;;;;;;;24.85;40.52;101628.63;16137581;19;129399;-43
2022/08/26 19:39:15;;;;;;;40.75;2.20;;;;;;;24.84;40.86;101635.31;16141541;19;129399;-45
2022/08/26 19:50:17;;;;;;;9.82;1.05;;;;;;;24.88;40.88;101644.88;16145282;19;130567;-44
2022/08/26 19:55:39;;;;;;;11.90;1.13;;;;;;;24.91;40.96;101648.25;16143990;19;130679;-42
2022/08/26 20:01:00;;;;;;;21.13;1.83;;;;;;;24.90;41.25;101658.63;16142832;19;129555;-43
2022/08/26 20:06:22;;;;;;;13.10;1.70;;;;;;;24.92;41.12;101662.00;16144424;19;129530;-50
2022/08/26 20:11:44;;;;;;;19.00;1.73;;;;;;;24.92;41.49;101649.94;16142843;19;130393;-42
2022/08/26 20:17:06;;;;;;;12.27;1.83;;;;;;;24.92;41.62;101649.94;16139654;19;129342;-43
2022/08/26 20:22:29;;;;;;;11.63;1.25;;;;;;;24.91;41.83;101654.69;16144206;19;129543;-42
2022/08/26 20:27:51;;;;;;;16.25;2.17;;;;;;;24.93;41.55;101657.22;16136624;19;129814;-44
2022/08/26 20:33:12;;;;;;;8.90;1.30;;;;;;;24.92;41.86;101655.53;16139152;19;129835;-46
2022/08/26 20:38:35;;;;;;;10.43;1.33;;;;;;;24.93;41.99;101660.00;16136395;19;129503;-43
2022/08/26 20:43:57;;;;;;;9.25;1.55;;;;;;;24.92;42.01;101662.00;16140568;19;129781;-42
2022/08/26 20:49:19;;;;;;;12.38;1.30;;;;;;;24.92;42.12;101662.00;16135565;19;129909;-46
2022/08/26 20:54:40;;;;;;;10.40;1.05;;;;;;;24.90;42.16;101663.34;16141058;19;129474;-42
2022/08/26 21:00:04;;;;;;;12.40;1.30;;;;;;;24.88;42.09;101660.81;16136534;19;129822;-45
2022/08/26 21:05:26;;;;;;;14.50;1.30;;;;;;;24.86;42.56;101652.66;16141946;19;129407;-42
2022/08/26 21:10:50;;;;;;;24.08;1.42;;;;;;;24.86;42.41;101660.22;16140269;19;129906;-43
2022/08/26 21:16:13;;;;;;;14.00;1.60;;;;;;;24.85;42.03;101658.53;16135536;19;130003;-45
2022/08/26 21:21:35;;;;;;;12.70;1.27;;;;;;;24.84;42.16;101649.31;16139869;19;129365;-42
2022/08/26 21:26:57;;;;;;;8.93;1.40;;;;;;;24.84;42.50;101651.25;16138957;19;129838;-46
2022/08/26 21:32:19;;;;;;;8.10;1.40;;;;;;;24.82;42.72;101647.88;16133928;19;128887;-46
2022/08/26 21:37:40;;;;;;;15.02;1.58;;;;;;;24.79;42.45;101646.47;16136761;19;129392;-44
2022/08/26 21:43:03;;;;;;;7.60;1.25;;;;;;;24.79;42.60;101646.47;16136418;19;129434;-43
2022/08/26 21:48:25;;;;;;;11.32;1.70;;;;;;;24.79;42.72;101651.25;16132202;19;131818;-45
2022/08/26 21:53:56;;;;;;;11.95;1.35;;;;;;;24.79;42.62;101651.25;16134286;19;128938;-42
2022/08/26 21:59:18;;;;;;;6.28;1.20;;;;;;;24.76;42.38;101663.81;16132433;19;130020;-44
2022/08/26 22:04:40;;;;;;;9.48;1.45;;;;;;;24.72;42.61;101665.47;16136584;19;129625;-43
2022/08/26 22:10:07;;;;;;;6.85;1.55;;;;;;;24.68;42.37;101664.31;16136591;19;129810;-44
2022/08/26 22:15:31;;;;;;;7.45;1.00;;;;;;;24.65;42.39;101662.06;16136290;19;128940;-42
2022/08/26 22:20:59;;;;;;;4.90;1.50;;;;;;;24.63;42.16;101667.06;16133830;19;130128;-44
2022/08/26 22:26:24;;;;;;;5.55;1.20;;;;;;;24.61;41.91;101669.31;16134781;19;129485;-43
2022/08/26 22:31:46;;;;;;;;;;;;;;;24.55;41.86;101669.28;16133690;19;130685;-42
2022/08/26 22:37:08;;;;;;;4.45;1.20;;;;;;;24.54;41.74;101659.19;16129392;19;131518;-43
2022/08/26 22:42:29;;;;;;;6.60;1.23;;;;;;;24.51;42.25;101668.13;16133867;19;129412;-43
2022/08/26 22:47:51;;;;;;;4.35;1.40;;;;;;;24.50;41.69;101662.81;16130028;19;130377;-42
2022/08/26 22:53:15;;;;;;;6.10;1.10;;;;;;;24.49;41.71;101656.38;16131211;19;131454;-42
2022/08/26 22:58:37;;;;;;;3.08;1.20;;;;;;;24.46;41.45;101656.91;16128913;19;129569;-42
2022/08/26 23:03:59;;;;;;;5.82;1.10;;;;;;;24.45;41.47;101651.56;16127667;19;129300;-42
2022/08/26 23:09:21;;;;;;;3.40;1.30;;;;;;;24.42;41.38;101652.97;16145114;19;128800;-42
2022/08/26 23:14:43;;;;;;;4.78;1.35;;;;;;;24.41;41.31;101656.84;16148301;19;129037;-43
2022/08/26 23:20:09;;;;;;;5.85;1.38;;;;;;;24.39;41.21;101653.47;16141760;19;129234;-43
2022/08/26 23:25:31;;;;;;;4.32;1.40;;;;;;;24.38;41.06;101657.38;16144326;19;130273;-43
2022/08/26 23:30:53;;;;;;;5.22;1.15;;;;;;;24.37;41.00;101659.34;16144338;19;129360;-46
2022/08/26 23:36:15;;;;;;;2.47;1.10;;;;;;;24.35;40.85;101650.38;16145028;19;129237;-42
2022/08/26 23:41:38;;;;;;;3.50;1.35;;;;;;;24.35;40.83;101649.56;16140998;19;129034;-44
2022/08/26 23:47:00;;;;;;;2.60;1.00;;;;;;;24.34;40.95;101662.69;16141605;19;129489;-42
2022/08/26 23:58:03;;;;;;;4.32;1.10;;;;;;;24.33;40.99;101672.19;16141393;19;129429;-42
